Fort Shafter, Hawaii
Current Conditions -  °F | °C
As of 2:53 PM on Tuesday 25 Nov 2014 (Local Time) from PHNL Reporting Station
Scattered Clouds Scattered Clouds  
Wind Chill: 79°   Ceiling: Unl
Heat Index: 80°   Visibility: 10mi
Dew Point: 61°   Wind: 20mph
Humidity: 54%   Direction: 40°NE
Pressure: 29.97"   Gusts: 26mph
Location:  21.35°N, 157.87°W
Report Text: PHNL 260053Z 04017G23KT 10SM FEW032 SCT038 SCT050 26/16 A2997 RMK AO2 SLP146 VCSH NE T02610161
Loading
Personal Weather Stations






























Interactive Weather Map New forecast layout! Learn more

10-Day Weather Forecast

Advertisements
Track Severe Weather on mobile